createdAt,value
2018-09-29T00:01:32.710Z,147258.44
2018-09-29T00:04:02.855Z,147248.47
2018-09-29T00:06:34.330Z,147236.08
2018-09-29T00:09:05.405Z,147249.72
2018-09-29T00:11:35.637Z,147252.19
2018-09-29T00:14:05.777Z,147257.20
2018-09-29T00:16:36.079Z,147254.67
2018-09-29T00:19:06.759Z,147257.20
2018-09-29T00:21:38.105Z,147241.03
2018-09-29T00:24:08.206Z,147242.28
2018-09-29T00:26:38.580Z,147248.47
2018-09-29T00:29:08.946Z,147267.16
2018-09-29T00:31:39.295Z,147259.67
2018-09-29T00:34:09.626Z,147269.64
2018-09-29T00:36:40.808Z,147287.00
2018-09-29T00:39:11.932Z,147299.39
2018-09-29T00:41:41.679Z,147306.83
2018-09-29T00:44:11.349Z,147304.36
2018-09-29T00:46:41.063Z,147323.00
2018-09-29T00:49:10.780Z,147330.44
2018-09-29T00:51:40.473Z,147347.80
2018-09-29T00:54:10.617Z,147354.00
2018-09-29T00:56:41.167Z,147346.56
2018-09-29T00:59:11.084Z,147342.84
2018-09-29T01:01:42.335Z,147329.20
2018-09-29T01:04:12.612Z,147336.64
2018-09-29T01:06:42.910Z,147336.64
2018-09-29T01:09:13.182Z,147341.59
2018-09-29T01:11:43.432Z,147329.20
2018-09-29T01:14:14.003Z,147335.39
2018-09-29T01:16:44.251Z,147339.11
2018-09-29T01:19:14.547Z,147344.08
2018-09-29T01:21:44.776Z,147329.20
2018-09-29T01:24:14.987Z,147324.23
2018-09-29T01:26:45.230Z,147327.95
2018-09-29T01:29:18.602Z,147323.00
2018-09-29T01:31:48.570Z,147331.67
2018-09-29T01:34:18.557Z,147311.84
2018-09-29T01:36:48.783Z,147298.16
2018-09-29T01:39:18.888Z,147246.00
2018-09-29T01:41:49.872Z,147247.23
2018-09-29T01:44:20.067Z,147210.00
2018-09-29T01:46:51.147Z,147228.64
2018-09-29T01:49:21.326Z,147239.80
2018-09-29T01:51:53.225Z,147254.67
2018-09-29T01:54:23.437Z,147262.16
2018-09-29T01:56:53.401Z,147275.84
2018-09-29T01:59:23.925Z,147296.91
2018-09-29T02:01:54.920Z,147298.16
2018-09-29T02:04:25.564Z,147315.56
2018-09-29T02:06:55.964Z,147316.80
2018-09-29T02:09:26.199Z,147324.23
2018-09-29T02:11:57.264Z,147329.20
2018-09-29T02:14:27.520Z,147342.84
2018-09-29T02:16:57.783Z,147360.25
2018-09-29T02:19:27.764Z,147377.59
2018-09-29T02:21:57.891Z,147378.84
2018-09-29T02:24:28.073Z,147368.92
2018-09-29T02:26:58.244Z,147370.16
2018-09-29T02:29:29.190Z,147372.64
2018-09-29T02:31:59.547Z,147363.97
2018-09-29T02:34:29.765Z,147366.44
2018-09-29T02:36:59.837Z,147360.25
2018-09-29T02:39:30.623Z,147341.59
2018-09-29T02:42:00.889Z,147334.16
2018-09-29T02:44:31.133Z,147323.00
2018-09-29T02:47:01.286Z,147308.08
2018-09-29T02:49:31.570Z,147296.91
2018-09-29T02:52:01.798Z,147279.56
2018-09-29T02:54:31.941Z,147284.52
2018-09-29T02:57:03.097Z,147247.23
2018-09-29T02:59:33.396Z,147231.13
2018-09-29T03:02:04.432Z,147241.03
2018-09-29T03:04:34.711Z,147241.03
2018-09-29T03:07:04.930Z,147222.44
2018-09-29T03:09:35.056Z,147212.48
2018-09-29T03:12:05.032Z,147202.56
2018-09-29T03:14:35.075Z,147187.70
2018-09-29T03:17:05.348Z,147186.45
2018-09-29T03:19:35.490Z,147187.70
2018-09-29T03:22:06.575Z,147186.45
2018-09-29T03:24:36.802Z,147182.75
2018-09-29T03:27:06.995Z,147181.50
2018-09-29T03:29:38.127Z,147177.78
2018-09-29T03:32:08.492Z,147162.86
2018-09-29T03:34:38.719Z,147141.80
2018-09-29T03:37:08.562Z,147124.45
2018-09-29T03:39:38.224Z,147136.84
2018-09-29T03:42:07.942Z,147139.31
2018-09-29T03:44:37.881Z,147145.52
2018-09-29T03:47:08.543Z,147151.72
2018-09-29T03:49:38.789Z,147165.34
2018-09-29T03:52:09.115Z,147161.62
2018-09-29T03:54:39.209Z,147172.83
2018-09-29T03:57:09.441Z,147180.25
2018-09-29T03:59:39.612Z,147182.75
2018-09-29T04:02:10.003Z,147176.55
2018-09-29T04:04:40.613Z,147174.06
2018-09-29T04:07:11.918Z,147181.50
2018-09-29T04:09:42.028Z,147200.09
2018-09-29T04:12:12.061Z,147192.66
2018-09-29T04:14:42.350Z,147190.17
2018-09-29T04:17:13.205Z,147192.66
2018-09-29T04:19:43.589Z,147200.09
2018-09-29T04:22:13.813Z,147232.36
2018-09-29T04:24:44.228Z,147234.84
2018-09-29T04:27:15.303Z,147248.47
2018-09-29T04:29:45.422Z,147255.95
2018-09-29T04:32:16.361Z,147272.13
2018-09-29T04:34:46.678Z,147298.16
2018-09-29T04:37:17.629Z,147299.39
2018-09-29T04:39:47.460Z,147305.59
2018-09-29T04:42:17.745Z,147336.64
2018-09-29T04:44:47.946Z,147354.00
2018-09-29T04:47:17.752Z,147387.52
2018-09-29T04:49:47.448Z,147423.53
2018-09-29T04:52:17.125Z,147448.34
2018-09-29T04:54:46.941Z,147509.22
2018-09-29T04:57:16.690Z,147629.72
2018-09-29T04:59:46.391Z,147745.28
2018-09-29T05:02:16.306Z,147791.27
2018-09-29T05:04:47.064Z,147809.94
2018-09-29T05:07:18.353Z,147823.59
2018-09-29T05:09:48.651Z,147850.97
2018-09-29T05:12:18.700Z,147880.81
2018-09-29T05:14:48.744Z,147918.08
2018-09-29T05:17:19.031Z,147965.33
2018-09-29T05:19:48.954Z,148005.12
2018-09-29T05:22:20.028Z,148068.64
2018-09-29T05:24:50.248Z,148138.28
2018-09-29T05:27:20.483Z,148232.84
2018-09-29T05:29:50.580Z,148372.31
2018-09-29T05:32:21.024Z,148519.30
2018-09-29T05:34:50.895Z,148566.63
2018-09-29T05:37:20.973Z,148650.11
2018-09-29T05:39:51.055Z,148744.88
2018-09-29T05:42:21.553Z,148954.34
2018-09-29T05:44:51.583Z,149030.44
2018-09-29T05:47:24.864Z,149130.28
2018-09-29T05:49:55.684Z,149243.81
2018-09-29T05:52:26.449Z,149330.00
2018-09-29T05:54:56.334Z,149358.73
2018-09-29T05:57:26.299Z,149491.11
2018-09-29T05:59:56.472Z,149413.66
2018-09-29T06:02:31.697Z,149501.14
2018-09-29T06:05:04.603Z,149631.06
2018-09-29T06:07:36.282Z,149856.09
2018-09-29T06:10:08.717Z,150011.22
2018-09-29T06:12:38.896Z,150201.41
2018-09-29T06:15:09.918Z,150088.73
2018-09-29T06:17:40.677Z,149987.39
2018-09-29T06:20:11.337Z,149993.63
2018-09-29T06:22:42.047Z,149931.13
2018-09-29T06:25:12.423Z,149737.31
2018-09-29T06:27:42.032Z,149531.13
2018-09-29T06:30:11.932Z,149442.41
2018-09-29T06:32:41.970Z,149436.17
2018-09-29T06:35:11.866Z,149437.42
2018-09-29T06:37:41.941Z,149372.45
2018-09-29T06:40:11.866Z,149183.94
2018-09-29T06:42:41.738Z,149131.53
2018-09-29T06:45:11.637Z,149065.38
2018-09-29T06:47:42.224Z,149101.52
2018-09-29T06:50:12.191Z,149079.09
2018-09-29T06:52:42.376Z,149072.84
2018-09-29T06:55:12.745Z,149176.45
2018-09-29T06:57:43.101Z,149104.06
2018-09-29T07:00:14.357Z,149112.78
2018-09-29T07:02:44.658Z,149084.06
2018-09-29T07:05:14.960Z,149079.09
2018-09-29T07:07:46.253Z,149156.50
2018-09-29T07:10:16.621Z,149045.39
2018-09-29T07:12:47.204Z,149197.64
2018-09-29T07:15:19.933Z,149235.09
2018-09-29T07:17:50.718Z,149180.19
2018-09-29T07:20:20.800Z,149220.13
2018-09-29T07:22:51.074Z,149298.78
2018-09-29T07:25:21.313Z,149346.27
2018-09-29T07:27:52.252Z,149350.00
2018-09-29T07:30:22.253Z,149318.78
2018-09-29T07:32:53.589Z,149513.62
2018-09-29T07:35:23.960Z,149583.59
2018-09-29T07:37:54.307Z,149663.52
2018-09-29T07:40:24.634Z,149541.11
2018-09-29T07:42:56.645Z,149587.34
2018-09-29T07:45:26.930Z,149543.61
2018-09-29T07:47:57.080Z,149601.06
2018-09-29T07:50:27.263Z,149537.38
2018-09-29T07:52:57.598Z,149658.53
2018-09-29T07:55:27.841Z,149761.03
2018-09-29T07:57:58.608Z,149789.81
2018-09-29T08:00:29.187Z,149854.84
2018-09-29T08:02:59.524Z,149811.03
2018-09-29T08:05:29.692Z,149809.78
2018-09-29T08:08:01.118Z,149803.53
2018-09-29T08:10:31.171Z,149838.55
2018-09-29T08:13:01.676Z,149767.33
2018-09-29T08:15:31.751Z,149793.55
2018-09-29T08:18:01.778Z,149821.06
2018-09-29T08:20:32.291Z,149896.09
2018-09-29T08:23:03.309Z,149793.55
2018-09-29T08:25:33.481Z,149908.59
2018-09-29T08:28:03.813Z,149888.61
2018-09-29T08:30:35.397Z,149917.38
2018-09-29T08:33:06.178Z,149866.13
2018-09-29T08:35:39.848Z,149796.05
2018-09-29T08:38:10.811Z,149784.81
2018-09-29T08:40:40.770Z,149668.50
2018-09-29T08:43:10.996Z,149592.33
2018-09-29T08:45:41.567Z,149451.14
2018-09-29T08:48:13.432Z,149441.16
2018-09-29T08:50:43.523Z,149381.19
2018-09-29T08:53:13.739Z,149382.44
2018-09-29T08:55:44.937Z,149404.94
2018-09-29T08:58:15.290Z,149362.47
2018-09-29T09:00:45.520Z,149406.19
2018-09-29T09:03:16.914Z,149408.67
2018-09-29T09:05:47.932Z,149290.00
2018-09-29T09:08:18.785Z,149353.75
2018-09-29T09:10:50.783Z,149423.66
2018-09-29T09:13:21.554Z,149345.02
2018-09-29T09:15:52.015Z,149268.81
2018-09-29T09:18:22.269Z,149350.00
2018-09-29T09:20:53.340Z,149417.41
2018-09-29T09:23:25.300Z,149414.91
2018-09-29T09:25:55.649Z,149406.19
2018-09-29T09:28:26.348Z,149422.41
2018-09-29T09:30:57.075Z,149442.41
2018-09-29T09:33:27.347Z,149376.20
2018-09-29T09:35:59.424Z,149356.25
2018-09-29T09:38:29.790Z,149339.98
2018-09-29T09:41:02.245Z,149352.50
2018-09-29T09:43:32.526Z,149336.23
2018-09-29T09:46:03.134Z,149353.75
2018-09-29T09:48:34.552Z,149363.72
2018-09-29T09:51:04.759Z,149392.47
2018-09-29T09:53:36.931Z,149333.75
2018-09-29T09:56:07.271Z,149312.55
2018-09-29T09:58:38.162Z,149273.80
2018-09-29T10:01:14.353Z,149251.34
2018-09-29T10:03:45.380Z,149248.84
2018-09-29T10:06:16.106Z,149265.06
2018-09-29T10:08:46.113Z,149260.08
2018-09-29T10:11:16.208Z,149213.89
2018-09-29T10:13:46.274Z,149076.59
2018-09-29T10:16:16.213Z,149072.84
2018-09-29T10:18:46.175Z,149129.03
2018-09-29T10:21:16.248Z,149167.72
2018-09-29T10:23:46.535Z,149205.17
2018-09-29T10:26:16.545Z,149298.78
2018-09-29T10:28:47.080Z,149297.53
2018-09-29T10:31:18.176Z,149258.83
2018-09-29T10:33:48.507Z,149148.97
2018-09-29T10:36:21.027Z,149163.98
2018-09-29T10:38:53.189Z,149242.58
2018-09-29T10:41:24.357Z,149270.05
2018-09-29T10:43:56.357Z,149255.09
2018-09-29T10:46:29.276Z,149186.42
2018-09-29T10:49:00.235Z,149117.77
2018-09-29T10:51:30.735Z,149114.03
2018-09-29T10:54:03.210Z,149140.25
2018-09-29T10:56:33.433Z,149101.52
2018-09-29T10:59:04.979Z,149159.00
2018-09-29T11:01:35.212Z,149183.94
2018-09-29T11:04:06.220Z,149208.91
2018-09-29T11:06:38.170Z,149307.50
2018-09-29T11:09:10.581Z,149328.75
2018-09-29T11:11:41.439Z,149316.28
2018-09-29T11:14:11.836Z,149250.09
2018-09-29T11:16:41.930Z,149165.23
2018-09-29T11:19:11.941Z,149132.78
2018-09-29T11:21:42.354Z,149173.95
2018-09-29T11:24:15.681Z,149168.97
2018-09-29T11:26:46.633Z,149230.11
2018-09-29T11:29:16.805Z,149275.05
2018-09-29T11:31:47.031Z,149286.25
2018-09-29T11:34:17.416Z,149263.81
2018-09-29T11:36:47.846Z,149303.77
2018-09-29T11:39:18.550Z,149282.52
2018-09-29T11:41:48.799Z,149221.38
2018-09-29T11:44:20.219Z,149181.44
2018-09-29T11:46:50.736Z,149261.33
2018-09-29T11:49:21.572Z,149262.56
2018-09-29T11:51:51.696Z,149140.25
2018-09-29T11:54:24.031Z,149223.87
2018-09-29T11:56:54.583Z,149256.34
2018-09-29T11:59:24.976Z,149302.52
2018-09-29T12:01:56.237Z,149203.92
2018-09-29T12:04:26.307Z,149165.23
2018-09-29T12:06:56.504Z,149178.94
2018-09-29T12:09:26.679Z,149176.45
2018-09-29T12:11:56.501Z,149119.06
2018-09-29T12:14:26.203Z,149071.61
2018-09-29T12:16:55.930Z,149045.39
2018-09-29T12:19:25.693Z,149029.19
2018-09-29T12:21:57.899Z,148990.52
2018-09-29T12:24:29.144Z,149036.67
2018-09-29T12:26:58.962Z,148961.86
2018-09-29T12:29:28.730Z,148924.44
2018-09-29T12:31:58.545Z,148822.16
2018-09-29T12:34:29.108Z,148888.22
2018-09-29T12:36:58.956Z,148852.06
2018-09-29T12:39:28.515Z,148834.63
2018-09-29T12:41:58.209Z,148838.36
2018-09-29T12:44:29.001Z,148814.64
2018-09-29T12:46:58.809Z,148854.55
2018-09-29T12:49:28.587Z,148875.77
2018-09-29T12:51:58.302Z,148896.94
2018-09-29T12:54:28.748Z,148809.66
2018-09-29T12:56:58.523Z,148849.56
2018-09-29T12:59:28.214Z,148774.80
2018-09-29T13:01:57.909Z,148832.12
2018-09-29T13:04:28.316Z,148857.03
2018-09-29T13:06:58.047Z,148845.83
2018-09-29T13:09:27.779Z,148847.06
2018-09-29T13:11:57.525Z,148863.27
2018-09-29T13:14:27.233Z,148854.55
2018-09-29T13:16:57.031Z,148859.53
2018-09-29T13:19:26.640Z,148877.02
2018-09-29T13:21:56.474Z,148877.02
2018-09-29T13:24:26.280Z,148874.52
2018-09-29T13:26:55.985Z,148895.69
2018-09-29T13:29:25.697Z,148899.44
2018-09-29T13:31:55.450Z,148919.41
2018-09-29T13:34:25.085Z,148935.66
2018-09-29T13:36:55.019Z,148936.89
2018-09-29T13:39:26.431Z,148928.19
2018-09-29T13:41:56.108Z,148925.69
2018-09-29T13:44:25.904Z,148918.16
2018-09-29T13:46:55.693Z,148852.06
2018-09-29T13:49:25.544Z,148842.09
2018-09-29T13:51:55.334Z,148839.59
2018-09-29T13:54:25.018Z,148833.38
2018-09-29T13:56:54.763Z,148824.66
2018-09-29T13:59:24.470Z,148822.16
2018-09-29T14:01:54.193Z,148822.16
2018-09-29T14:04:23.919Z,148798.45
2018-09-29T14:06:53.658Z,148763.55
2018-09-29T14:09:23.514Z,148739.88
2018-09-29T14:11:53.189Z,148716.13
2018-09-29T14:14:22.883Z,148709.91
2018-09-29T14:16:52.508Z,148691.23
2018-09-29T14:19:22.292Z,148663.80
2018-09-29T14:21:52.089Z,148628.91
2018-09-29T14:24:21.840Z,148597.78
2018-09-29T14:26:51.544Z,148592.81
2018-09-29T14:29:23.635Z,148564.14
2018-09-29T14:31:53.333Z,148528.00
2018-09-29T14:34:22.994Z,148521.78
2018-09-29T14:36:53.025Z,148505.61
2018-09-29T14:39:22.729Z,148458.23
2018-09-29T14:41:52.474Z,148447.03
2018-09-29T14:44:22.204Z,148428.33
2018-09-29T14:46:52.028Z,148432.06
2018-09-29T14:49:21.697Z,148405.94
2018-09-29T14:51:53.020Z,148383.50
2018-09-29T14:54:22.836Z,148364.84
2018-09-29T14:56:52.679Z,148363.61
2018-09-29T14:59:22.366Z,148348.69
2018-09-29T15:01:52.728Z,148306.34
2018-09-29T15:04:24.309Z,148317.55
2018-09-29T15:06:54.118Z,148292.63
2018-09-29T15:09:23.827Z,148316.30
2018-09-29T15:11:53.607Z,148334.95
2018-09-29T15:14:24.898Z,148303.86
2018-09-29T15:16:54.621Z,148337.44
2018-09-29T15:19:24.396Z,148343.66
2018-09-29T15:21:55.542Z,148349.92
2018-09-29T15:24:25.544Z,148341.17
2018-09-29T15:26:55.342Z,148354.91
2018-09-29T15:29:25.013Z,148349.92
2018-09-29T15:31:54.757Z,148352.41
2018-09-29T15:34:24.546Z,148361.11
2018-09-29T15:36:54.293Z,148354.91
2018-09-29T15:39:24.145Z,148328.73
2018-09-29T15:41:54.054Z,148328.73
2018-09-29T15:44:24.695Z,148341.17
2018-09-29T15:46:54.385Z,148342.41
2018-09-29T15:49:24.290Z,148336.19
2018-09-29T15:51:54.181Z,148313.81
2018-09-29T15:54:24.071Z,148317.55
2018-09-29T15:56:53.850Z,148317.55
2018-09-29T15:59:25.333Z,148305.11
2018-09-29T16:01:55.074Z,148292.63
2018-09-29T16:04:24.778Z,148298.84
2018-09-29T16:06:55.451Z,148301.37
2018-09-29T16:09:25.233Z,148305.11
2018-09-29T16:11:55.232Z,148310.08
2018-09-29T16:14:25.098Z,148306.34
2018-09-29T16:16:54.883Z,148307.59
2018-09-29T16:19:24.678Z,148303.86
2018-09-29T16:21:56.115Z,148276.41
2018-09-29T16:24:29.166Z,148303.86
2018-09-29T16:26:58.865Z,148303.86
2018-09-29T16:29:29.394Z,148305.11
2018-09-29T16:31:59.189Z,148292.63
2018-09-29T16:34:28.894Z,148291.37
2018-09-29T16:36:59.624Z,148291.37
2018-09-29T16:39:29.348Z,148291.37
2018-09-29T16:41:59.555Z,148280.14
2018-09-29T16:44:29.275Z,148262.73
2018-09-29T16:46:59.170Z,148252.78
2018-09-29T16:49:30.063Z,148237.81
2018-09-29T16:51:59.787Z,148229.12
2018-09-29T16:54:29.560Z,148214.20
2018-09-29T16:57:03.197Z,148174.38
2018-09-29T16:59:32.969Z,148176.86
2018-09-29T17:02:02.787Z,148184.31
2018-09-29T17:04:32.577Z,148100.95
2018-09-29T17:07:02.322Z,147980.28
2018-09-29T17:09:32.068Z,147898.20
2018-09-29T17:12:01.979Z,147786.30
2018-09-29T17:14:32.666Z,147721.66
2018-09-29T17:17:02.414Z,147663.27
2018-09-29T17:19:32.455Z,147614.81
2018-09-29T17:22:02.155Z,147560.17
2018-09-29T17:24:33.250Z,147540.28
2018-09-29T17:27:03.121Z,147500.53
2018-09-29T17:29:32.917Z,147490.56
2018-09-29T17:32:02.698Z,147468.23
2018-09-29T17:34:32.479Z,147474.44
2018-09-29T17:37:03.114Z,147459.55
2018-09-29T17:39:32.889Z,147452.11
2018-09-29T17:42:02.672Z,147445.86
2018-09-29T17:44:32.346Z,147438.41
2018-09-29T17:47:02.148Z,147447.09
2018-09-29T17:49:31.998Z,147430.97
2018-09-29T17:52:01.916Z,147407.41
2018-09-29T17:54:31.625Z,147378.84
2018-09-29T17:57:02.971Z,147373.88
2018-09-29T17:59:33.448Z,147367.69
2018-09-29T18:02:03.320Z,147345.31
2018-09-29T18:04:33.075Z,147331.67
2018-09-29T18:07:02.838Z,147309.31
2018-09-29T18:09:32.505Z,147288.23
2018-09-29T18:12:02.316Z,147259.67
2018-09-29T18:14:33.617Z,147246.00
2018-09-29T18:17:03.433Z,147238.56
2018-09-29T18:19:33.257Z,147207.53
2018-09-29T18:22:04.114Z,147196.38
2018-09-29T18:24:35.118Z,147181.50
2018-09-29T18:27:04.889Z,147151.72
2018-09-29T18:29:35.583Z,147118.20
2018-09-29T18:32:05.362Z,147102.09
2018-09-29T18:34:35.675Z,147081.03
2018-09-29T18:39:48.454Z,147086.00
2018-09-29T18:42:18.320Z,147069.84
2018-09-29T18:44:48.166Z,147064.89
2018-09-29T18:47:17.919Z,147077.33
2018-09-29T18:49:59.217Z,147051.25
2018-09-29T18:52:28.935Z,147048.78
2018-09-29T18:54:59.822Z,147045.06
2018-09-29T18:57:29.704Z,147040.11
2018-09-29T18:59:59.458Z,147030.20
2018-09-29T19:02:29.371Z,147005.38
2018-09-29T19:04:59.107Z,146986.81
2018-09-29T19:07:28.847Z,146979.33
2018-09-29T19:09:58.511Z,146952.08
2018-09-29T19:12:28.478Z,146922.27
2018-09-29T19:14:58.119Z,146917.31
2018-09-29T19:17:27.883Z,146913.59
2018-09-29T19:19:58.451Z,146895.03
2018-09-29T19:22:28.290Z,146867.75
2018-09-29T19:24:57.939Z,146841.75
2018-09-29T19:27:27.810Z,146829.31
2018-09-29T19:29:57.559Z,146798.38
2018-09-29T19:32:27.297Z,146781.00
2018-09-29T19:34:57.079Z,146781.00
2018-09-29T19:37:28.499Z,146762.44
2018-09-29T19:39:59.294Z,146757.47
2018-09-29T19:42:29.020Z,146738.87
2018-09-29T19:44:58.898Z,146735.16
2018-09-29T19:47:29.689Z,146755.00
2018-09-29T19:49:59.440Z,146741.34
2018-09-29T19:52:29.301Z,146747.58
2018-09-29T19:54:59.034Z,146755.00
2018-09-29T19:57:28.858Z,146737.62
2018-09-29T19:59:59.668Z,146733.92
2018-09-29T20:02:29.578Z,146733.92
2018-09-29T20:04:59.325Z,146725.25
2018-09-29T20:07:29.068Z,146721.55
2018-09-29T20:09:58.790Z,146710.41
2018-09-29T20:12:28.723Z,146702.98
2018-09-29T20:14:58.493Z,146683.14
2018-09-29T20:17:28.272Z,146683.14
2018-09-29T20:19:58.124Z,146679.42
2018-09-29T20:22:28.073Z,146681.91
2018-09-29T20:24:59.244Z,146681.91
2018-09-29T20:27:29.064Z,146694.28
2018-09-29T20:29:58.809Z,146681.91
2018-09-29T20:32:28.511Z,146672.00
2018-09-29T20:34:58.400Z,146664.58
2018-09-29T20:37:28.413Z,146657.16
2018-09-29T20:39:58.266Z,146657.16
2018-09-29T20:42:28.084Z,146664.58
2018-09-29T20:44:57.856Z,146650.92
2018-09-29T20:47:27.521Z,146653.44
2018-09-29T20:49:59.046Z,146643.50
2018-09-29T20:52:28.977Z,146639.78
2018-09-29T20:54:59.143Z,146637.31
2018-09-29T20:57:29.084Z,146647.22
2018-09-29T20:59:58.924Z,146654.69
2018-09-29T21:02:28.698Z,146637.31
2018-09-29T21:04:58.453Z,146642.27
2018-09-29T21:07:28.345Z,146629.89
2018-09-29T21:09:58.058Z,146620.00
2018-09-29T21:12:27.820Z,146622.47
2018-09-29T21:14:57.576Z,146595.16
2018-09-29T21:17:27.334Z,146597.63
2018-09-29T21:19:56.989Z,146582.80
2018-09-29T21:22:26.747Z,146569.19
2018-09-29T21:24:56.444Z,146575.38
2018-09-29T21:27:26.181Z,146565.47
2018-09-29T21:29:55.917Z,146563.00
2018-09-29T21:32:25.680Z,146565.47
2018-09-29T21:34:55.442Z,146570.42
2018-09-29T21:37:25.201Z,146553.06
2018-09-29T21:39:54.954Z,146549.34
2018-09-29T21:42:24.884Z,146546.88
2018-09-29T21:44:54.704Z,146540.69
2018-09-29T21:47:24.493Z,146530.80
2018-09-29T21:49:54.205Z,146533.27
2018-09-29T21:52:24.062Z,146535.75
2018-09-29T21:54:53.803Z,146527.09
2018-09-29T21:57:23.528Z,146518.44
2018-09-29T21:59:53.577Z,146523.38
2018-09-29T22:02:23.572Z,146525.84
2018-09-29T22:04:53.326Z,146525.84
2018-09-29T22:07:23.017Z,146528.33
2018-09-29T22:09:52.776Z,146534.50
2018-09-29T22:12:22.495Z,146530.80
2018-09-29T22:14:53.316Z,146538.22
2018-09-29T22:17:23.227Z,146525.84
2018-09-29T22:19:52.861Z,146528.33
2018-09-29T22:22:22.667Z,146538.22
2018-09-29T22:24:52.426Z,146528.33
2018-09-29T22:27:23.397Z,146533.27
2018-09-29T22:29:53.171Z,146539.45
2018-09-29T22:32:22.921Z,146545.64
2018-09-29T22:34:52.625Z,146529.56
2018-09-29T22:37:22.375Z,146527.09
2018-09-29T22:39:52.138Z,146529.56
2018-09-29T22:42:21.835Z,146522.14
2018-09-29T22:44:51.556Z,146524.61
2018-09-29T22:47:21.835Z,146528.33
2018-09-29T22:49:51.533Z,146520.91
2018-09-29T22:52:21.211Z,146524.61
2018-09-29T22:54:50.864Z,146523.38
2018-09-29T22:57:20.612Z,146518.44
2018-09-29T22:59:50.334Z,146520.91
2018-09-29T23:02:20.053Z,146515.97
2018-09-29T23:04:49.720Z,146513.48
2018-09-29T23:07:19.428Z,146498.59
2018-09-29T23:09:49.432Z,146498.59
2018-09-29T23:12:19.205Z,146507.25
2018-09-29T23:14:48.874Z,146517.19
2018-09-29T23:17:18.777Z,146508.50
2018-09-29T23:19:50.018Z,146509.73
2018-09-29T23:22:20.246Z,146514.72
2018-09-29T23:24:49.885Z,146504.78
2018-09-29T23:27:19.617Z,146503.55
2018-09-29T23:29:49.276Z,146497.36
2018-09-29T23:32:21.665Z,146491.19
2018-09-29T23:34:51.353Z,146493.66
2018-09-29T23:37:20.986Z,146483.77
2018-09-29T23:39:50.706Z,146498.59
2018-09-29T23:42:20.445Z,146492.42
2018-09-29T23:44:50.253Z,146485.00
2018-09-29T23:47:20.036Z,146496.13
2018-09-29T23:49:49.780Z,146502.31
2018-09-29T23:52:19.545Z,146496.13
2018-09-29T23:54:49.248Z,146498.59
2018-09-29T23:57:18.907Z,146499.84
2018-09-29T23:59:48.571Z,146496.13
